Corwin, Kansas
Current Conditions -  °F | °C
As of 10:10 AM on Sunday 25 Jan 2015 (Local Time) from KAVK Reporting Station
Clear Clear  
Wind Chill: 50°   Ceiling: Unl
Heat Index: 50°   Visibility: 10mi
Dew Point: 27°   Wind: 31mph
Humidity: 40%   Direction: 340°NNW
Pressure: 30.03"   Gusts: 46mph
Location:  37.1231°N, 98.4033°W
Report Text: KAVK 251610Z AUTO 34027G40KT 10SM CLR 10/M03 A3003 RMK AO2
Loading
Personal Weather Stations






























Interactive Weather Map New forecast layout! Learn more

10-Day Weather Forecast

Advertisements
Track Severe Weather on mobile